Time;durP1;ratioP1;P1;durP2;ratioP2;P2;SDS_P1;SDS_P2;PMS_P1;PMS_P2;Temp;Humidity;BMP_temperature;BMP_pressure;BME280_temperature;BME280_humidity;BME280_pressure;Samples;Min_cycle;Max_cycle;Signal;HPM_P1;HPM_P2
2022/07/21 00:32:06;;;;;;;21.57;19.70;;;21.40;99.90;;;;;;5974583;23;20380;-66
2022/07/21 00:34:33;;;;;;;19.10;17.60;;;21.40;99.90;;;;;;4975343;28;20446;-65
2022/07/21 00:37:00;;;;;;;18.03;16.60;;;21.40;99.90;;;;;;4974942;28;20459;-64
2022/07/21 00:39:27;;;;;;;18.83;17.33;;;21.40;99.90;;;;;;4974996;28;20504;-64
2022/07/21 00:41:54;;;;;;;17.97;16.57;;;21.40;99.90;;;;;;4974578;28;20465;-64
2022/07/21 00:44:22;;;;;;;19.60;17.70;;;21.40;99.90;;;;;;4975146;28;20454;-65
2022/07/21 00:46:48;;;;;;;18.77;17.47;;;21.40;99.90;;;;;;4974981;28;20541;-64
2022/07/21 00:49:17;;;;;;;19.83;18.20;;;21.40;99.90;;;;;;4975024;28;20519;-64
2022/07/21 00:51:44;;;;;;;20.20;18.27;;;21.40;99.90;;;;;;4974902;28;20458;-65
2022/07/21 00:54:11;;;;;;;19.07;17.27;;;21.40;99.90;;;;;;4975123;28;20561;-64
2022/07/21 00:56:38;;;;;;;19.93;18.43;;;21.40;99.90;;;;;;4974786;28;20459;-64
2022/07/21 00:59:05;;;;;;;20.20;18.43;;;21.50;99.90;;;;;;4974818;28;20459;-64
2022/07/21 01:01:31;;;;;;;17.97;16.60;;;21.50;99.90;;;;;;4974822;28;20478;-64
2022/07/21 01:03:58;;;;;;;17.90;16.50;;;21.50;99.90;;;;;;4974950;28;20479;-64
2022/07/21 01:06:26;;;;;;;17.67;16.37;;;21.50;99.90;;;;;;4974828;28;20534;-64
2022/07/21 01:08:54;;;;;;;20.27;18.40;;;21.50;99.90;;;;;;4974869;28;20455;-66
2022/07/21 01:11:21;;;;;;;19.40;17.80;;;21.50;99.90;;;;;;4974856;28;20451;-65
2022/07/21 01:13:48;;;;;;;17.10;15.70;;;21.50;99.90;;;;;;4974685;28;20481;-65
2022/07/21 01:16:15;;;;;;;18.30;16.67;;;21.40;99.90;;;;;;4974663;28;20458;-65
2022/07/21 01:18:42;;;;;;;16.77;15.20;;;21.50;99.90;;;;;;4974670;28;20454;-65
2022/07/21 01:21:27;;;;;;;16.53;15.00;;;21.50;99.90;;;;;;4974354;28;21017;-65
2022/07/21 01:23:54;;;;;;;16.97;15.57;;;21.50;99.90;;;;;;4974609;28;20474;-65
2022/07/21 01:26:21;;;;;;;17.07;15.57;;;21.50;99.90;;;;;;4977805;28;20462;-65
2022/07/21 01:28:47;;;;;;;16.90;15.40;;;21.50;99.90;;;;;;4978015;28;20458;-65
2022/07/21 01:31:15;;;;;;;16.47;15.07;;;21.50;99.90;;;;;;4978675;28;20455;-65
2022/07/21 01:33:42;;;;;;;16.23;15.03;;;21.50;99.90;;;;;;4978003;28;20486;-66
2022/07/21 01:36:09;;;;;;;17.53;15.73;;;21.50;99.90;;;;;;4982585;28;20458;-67
2022/07/21 01:41:30;;;;;;;18.00;16.50;;;21.60;99.90;;;;;;4978670;28;20527;-65
2022/07/21 01:43:57;;;;;;;19.70;17.80;;;21.60;99.90;;;;;;4978167;28;20478;-64
2022/07/21 01:46:24;;;;;;;20.63;18.70;;;21.60;99.90;;;;;;4978043;28;20454;-64
2022/07/21 01:48:50;;;;;;;18.87;17.37;;;21.60;99.90;;;;;;4977924;28;20459;-64
2022/07/21 01:51:17;;;;;;;18.63;17.13;;;21.60;99.90;;;;;;4977947;28;20450;-64
2022/07/21 01:53:45;;;;;;;19.87;17.90;;;21.60;99.90;;;;;;4977741;28;20485;-64
2022/07/21 01:56:12;;;;;;;19.60;18.00;;;21.60;99.90;;;;;;4977399;28;20458;-64
2022/07/21 01:58:38;;;;;;;20.67;19.07;;;21.60;99.90;;;;;;4977727;28;20462;-64
2022/07/21 02:01:06;;;;;;;21.80;19.90;;;21.50;99.90;;;;;;4977681;28;20489;-64
2022/07/21 02:03:33;;;;;;;23.23;21.20;;;21.40;99.90;;;;;;4977587;28;20817;-64
2022/07/21 02:06:03;;;;;;;21.07;19.33;;;21.30;99.90;;;;;;4977619;28;20465;-64
2022/07/21 02:08:30;;;;;;;22.73;20.80;;;21.30;99.90;;;;;;4978446;28;20458;-64
2022/07/21 02:10:58;;;;;;;23.13;20.90;;;21.20;99.90;;;;;;4977722;28;20451;-64
2022/07/21 02:13:25;;;;;;;23.43;21.30;;;21.10;99.90;;;;;;4977526;28;20529;-64
2022/07/21 02:15:52;;;;;;;23.83;21.57;;;21.10;99.90;;;;;;4977815;28;20868;-64
2022/07/21 02:18:19;;;;;;;22.57;20.70;;;21.10;99.90;;;;;;4977602;28;20454;-63
2022/07/21 02:20:47;;;;;;;23.97;21.90;;;21.00;99.90;;;;;;4977471;28;20489;-63
2022/07/21 02:23:14;;;;;;;24.07;21.97;;;21.00;99.90;;;;;;4977385;28;20479;-64
2022/07/21 02:25:41;;;;;;;24.67;22.67;;;21.00;99.90;;;;;;4977086;28;20820;-63
2022/07/21 02:28:09;;;;;;;24.23;22.13;;;21.00;99.90;;;;;;4977914;28;20459;-63
2022/07/21 02:30:36;;;;;;;23.60;21.50;;;20.90;99.90;;;;;;4977560;28;20455;-63
2022/07/21 02:33:02;;;;;;;24.00;21.90;;;20.90;99.90;;;;;;4977262;28;20490;-63
2022/07/21 02:35:29;;;;;;;25.70;23.00;;;20.80;99.90;;;;;;4977004;28;20462;-63
2022/07/21 02:37:56;;;;;;;24.30;22.40;;;20.90;99.90;;;;;;4977388;28;20451;-63
2022/07/21 02:40:23;;;;;;;23.80;21.80;;;20.80;99.90;;;;;;4976771;28;20474;-63
2022/07/21 02:42:50;;;;;;;23.17;21.23;;;20.90;99.90;;;;;;4976860;28;20478;-63
2022/07/21 02:45:18;;;;;;;25.17;22.80;;;20.90;99.90;;;;;;4977207;28;20459;-63
2022/07/21 02:47:50;;;;;;;23.03;21.23;;;21.00;99.90;;;;;;4977703;28;20454;-63
2022/07/21 02:50:17;;;;;;;24.07;21.97;;;21.00;99.90;;;;;;4976609;28;20458;-63
2022/07/21 02:52:44;;;;;;;22.60;20.57;;;21.00;99.90;;;;;;4976551;28;21043;-63
2022/07/21 02:55:10;;;;;;;22.93;21.03;;;21.00;99.90;;;;;;4976395;28;20973;-63
2022/07/21 02:57:37;;;;;;;24.30;22.10;;;21.00;99.90;;;;;;4976792;28;20972;-64
2022/07/21 03:00:05;;;;;;;23.50;21.27;;;21.00;99.90;;;;;;4976341;28;20965;-64
2022/07/21 03:02:33;;;;;;;26.83;24.53;;;21.00;99.90;;;;;;4976723;28;20839;-63
2022/07/21 03:05:00;;;;;;;26.97;24.57;;;20.80;99.90;;;;;;4976586;28;20459;-64
2022/07/21 03:07:27;;;;;;;26.10;23.60;;;20.80;99.90;;;;;;4976585;28;20806;-63
2022/07/21 03:09:54;;;;;;;24.97;22.40;;;20.70;99.90;;;;;;4976169;28;20938;-63
2022/07/21 03:12:20;;;;;;;24.80;22.37;;;20.80;99.90;;;;;;4976848;28;20481;-64
2022/07/21 03:14:47;;;;;;;24.80;22.67;;;20.80;99.90;;;;;;4976749;28;20481;-63
2022/07/21 03:17:14;;;;;;;25.63;23.43;;;20.90;99.90;;;;;;4976366;28;20493;-63
2022/07/21 03:19:42;;;;;;;24.77;22.70;;;20.90;99.90;;;;;;4976317;28;20463;-63
2022/07/21 03:22:09;;;;;;;23.50;21.53;;;20.80;99.90;;;;;;4976215;28;20489;-64
2022/07/21 03:24:35;;;;;;;24.07;22.07;;;20.90;99.90;;;;;;4976180;28;20454;-64
2022/07/21 03:27:02;;;;;;;25.40;23.03;;;20.90;99.90;;;;;;4976175;28;20458;-63
2022/07/21 03:29:29;;;;;;;26.03;23.70;;;20.90;99.90;;;;;;4976089;28;20821;-63
2022/07/21 03:31:55;;;;;;;26.43;23.93;;;20.80;99.90;;;;;;4975733;28;20926;-64
2022/07/21 03:34:22;;;;;;;26.73;24.33;;;20.80;99.90;;;;;;4976061;28;20461;-63
2022/07/21 03:36:50;;;;;;;22.63;20.80;;;20.80;99.90;;;;;;4975958;28;20462;-63
2022/07/21 03:39:17;;;;;;;23.57;21.53;;;20.90;99.90;;;;;;4975643;28;20802;-63
2022/07/21 03:41:43;;;;;;;24.10;21.57;;;20.90;99.90;;;;;;4975772;28;20486;-63
2022/07/21 03:44:10;;;;;;;23.60;21.43;;;20.90;99.90;;;;;;4975980;28;20478;-63
2022/07/21 03:46:37;;;;;;;21.80;19.77;;;21.00;99.90;;;;;;4975797;28;20455;-63
2022/07/21 03:49:04;;;;;;;22.17;20.10;;;21.00;99.90;;;;;;4975257;28;20458;-63
2022/07/21 03:51:30;;;;;;;21.80;19.97;;;21.00;99.90;;;;;;4975827;28;20513;-63
2022/07/21 03:54:01;;;;;;;19.83;18.33;;;21.00;99.90;;;;;;4975509;28;20554;-63
2022/07/21 03:56:28;;;;;;;20.37;18.60;;;21.00;99.90;;;;;;4975818;28;20502;-64
2022/07/21 03:58:55;;;;;;;20.13;18.53;;;21.00;99.90;;;;;;4975812;28;20454;-64
2022/07/21 04:01:21;;;;;;;21.90;19.90;;;21.00;99.90;;;;;;4975788;28;20479;-64
2022/07/21 04:03:48;;;;;;;20.60;19.00;;;21.00;99.90;;;;;;4975795;28;20475;-63
2022/07/21 04:06:15;;;;;;;20.30;18.50;;;21.10;99.90;;;;;;4975843;28;20466;-63
2022/07/21 04:08:42;;;;;;;21.53;19.77;;;21.10;99.90;;;;;;4975428;28;20941;-63
2022/07/21 04:11:10;;;;;;;18.80;17.30;;;21.10;99.90;;;;;;4975636;28;20459;-65
2022/07/21 04:13:36;;;;;;;20.03;18.10;;;21.10;99.90;;;;;;4976247;28;20485;-64
2022/07/21 04:16:03;;;;;;;19.80;18.13;;;21.10;99.90;;;;;;4975753;28;20455;-64
2022/07/21 04:18:30;;;;;;;19.17;17.47;;;21.10;99.90;;;;;;4975433;28;20458;-64
2022/07/21 04:20:57;;;;;;;21.00;19.20;;;21.00;99.90;;;;;;4975336;28;20482;-64
2022/07/21 04:23:23;;;;;;;21.17;19.47;;;21.10;99.90;;;;;;4975274;28;20541;-64
2022/07/21 04:25:50;;;;;;;20.10;18.23;;;21.10;99.90;;;;;;4975373;28;20489;-65
2022/07/21 04:28:18;;;;;;;19.20;17.40;;;21.10;99.90;;;;;;4978115;28;20455;-64
2022/07/21 04:30:45;;;;;;;20.27;18.57;;;21.10;99.90;;;;;;4988649;28;20451;-64
2022/07/21 04:33:12;;;;;;;21.67;19.80;;;21.10;99.90;;;;;;4980030;28;20573;-63
2022/07/21 04:35:39;;;;;;;19.50;17.80;;;21.10;99.90;;;;;;4975326;28;20969;-64
2022/07/21 04:38:05;;;;;;;18.77;17.27;;;21.10;99.90;;;;;;4975127;28;20462;-65
2022/07/21 04:40:32;;;;;;;20.03;18.50;;;21.20;99.90;;;;;;4974774;28;20458;-64
2022/07/21 04:42:59;;;;;;;19.70;18.10;;;21.10;99.90;;;;;;4975060;28;20478;-64
2022/07/21 04:45:27;;;;;;;20.37;18.43;;;21.20;99.90;;;;;;4975012;28;20458;-64
2022/07/21 04:47:55;;;;;;;20.93;19.03;;;21.10;99.90;;;;;;4975244;28;20558;-64
2022/07/21 04:50:24;;;;;;;19.20;17.50;;;21.10;99.90;;;;;;4975148;28;20466;-64
2022/07/21 04:52:51;;;;;;;19.60;18.07;;;21.10;99.90;;;;;;4975019;28;20483;-64
2022/07/21 04:55:19;;;;;;;19.03;17.53;;;21.10;99.90;;;;;;4974645;28;20458;-64
2022/07/21 04:57:47;;;;;;;20.30;18.50;;;21.10;99.90;;;;;;4975071;28;20550;-64
2022/07/21 05:00:16;;;;;;;20.50;18.57;;;21.10;99.90;;;;;;4976877;28;20461;-64
2022/07/21 05:02:45;;;;;;;20.30;18.17;;;21.10;99.90;;;;;;4978654;28;20509;-65
2022/07/21 05:05:12;;;;;;;17.17;15.90;;;21.10;99.90;;;;;;4978814;28;20455;-64
2022/07/21 05:07:40;;;;;;;17.90;16.40;;;21.20;99.90;;;;;;4978821;28;20461;-64
2022/07/21 05:10:08;;;;;;;17.67;16.37;;;21.20;99.90;;;;;;4978937;28;20462;-64
2022/07/21 05:12:35;;;;;;;17.80;16.40;;;21.30;99.90;;;;;;4978472;28;20475;-64
2022/07/21 05:15:02;;;;;;;16.97;15.23;;;21.30;99.90;;;;;;4980756;28;20454;-64
2022/07/21 05:17:28;;;;;;;18.40;16.93;;;21.40;99.90;;;;;;4990393;28;20462;-64
2022/07/21 05:19:56;;;;;;;18.97;17.13;;;21.50;99.90;;;;;;4979383;28;20455;-64
2022/07/21 05:22:23;;;;;;;17.40;16.00;;;21.50;99.90;;;;;;4978759;28;20489;-64
2022/07/21 05:24:50;;;;;;;20.03;17.97;;;21.60;99.90;;;;;;4978646;28;20455;-64
2022/07/21 05:27:17;;;;;;;19.90;18.30;;;21.70;99.90;;;;;;4978648;28;20455;-64
2022/07/21 05:29:44;;;;;;;16.50;14.87;;;21.80;99.90;;;;;;4978410;28;20818;-63
2022/07/21 05:32:11;;;;;;;14.73;13.50;;;22.00;99.90;;;;;;4978235;28;20504;-64
2022/07/21 05:34:37;;;;;;;16.77;15.37;;;22.20;99.90;;;;;;4978275;28;20465;-64
2022/07/21 05:37:05;;;;;;;17.80;16.20;;;22.30;99.90;;;;;;4978297;28;20821;-64
2022/07/21 05:39:32;;;;;;;15.93;14.60;;;22.60;99.90;;;;;;4978273;28;20791;-63
2022/07/21 05:41:58;;;;;;;16.33;15.03;;;22.70;99.90;;;;;;4978134;28;20589;-65
2022/07/21 05:44:25;;;;;;;16.70;15.33;;;22.90;99.90;;;;;;4978190;28;20459;-65
2022/07/21 05:46:52;;;;;;;18.60;17.20;;;23.00;99.90;;;;;;4978104;28;20583;-65
2022/07/21 05:49:19;;;;;;;18.77;16.97;;;23.10;99.90;;;;;;4978041;28;20458;-65
2022/07/21 05:51:45;;;;;;;16.07;14.67;;;23.10;99.90;;;;;;4977894;28;20530;-66
2022/07/21 05:54:13;;;;;;;16.43;15.13;;;23.20;99.90;;;;;;4977899;28;20474;-65
2022/07/21 05:56:40;;;;;;;15.00;13.87;;;23.30;99.90;;;;;;4977607;28;20565;-65
2022/07/21 05:59:07;;;;;;;15.80;14.40;;;23.30;99.90;;;;;;4977769;28;20465;-65
2022/07/21 06:01:34;;;;;;;16.47;14.90;;;23.40;99.90;;;;;;4977887;28;20501;-65
2022/07/21 06:04:00;;;;;;;15.70;14.50;;;23.50;99.90;;;;;;4977937;28;20474;-65
2022/07/21 06:06:27;;;;;;;14.30;13.20;;;23.50;99.90;;;;;;4978029;28;20486;-65
2022/07/21 06:08:55;;;;;;;15.40;14.10;;;23.60;99.90;;;;;;4977885;28;20459;-65
2022/07/21 06:11:23;;;;;;;15.33;14.13;;;23.70;99.90;;;;;;4977124;28;20450;-65
2022/07/21 06:13:50;;;;;;;14.93;13.63;;;23.80;99.90;;;;;;4977552;28;20501;-65
2022/07/21 06:16:16;;;;;;;15.03;13.73;;;24.00;99.90;;;;;;4977351;28;20455;-65
2022/07/21 06:18:43;;;;;;;16.70;15.20;;;24.20;99.90;;;;;;4977468;28;20461;-65
2022/07/21 06:21:10;;;;;;;15.27;14.00;;;24.30;99.90;;;;;;4977570;28;20486;-65
2022/07/21 06:23:37;;;;;;;15.00;13.73;;;24.50;99.90;;;;;;4977303;28;20478;-65
2022/07/21 06:26:03;;;;;;;14.53;13.13;;;24.60;99.90;;;;;;4977338;28;20461;-65
2022/07/21 06:28:31;;;;;;;13.80;12.80;;;24.50;99.90;;;;;;4977334;28;20829;-65
2022/07/21 06:30:58;;;;;;;14.97;13.77;;;24.40;99.90;;;;;;4977268;28;20454;-65
2022/07/21 06:33:25;;;;;;;15.63;14.27;;;24.40;99.90;;;;;;4976829;28;20497;-65
2022/07/21 06:35:52;;;;;;;15.83;14.43;;;24.40;99.90;;;;;;4977202;28;20463;-66
2022/07/21 06:38:19;;;;;;;14.43;13.13;;;24.30;99.90;;;;;;4977113;28;20455;-65
2022/07/21 06:40:45;;;;;;;12.70;11.87;;;24.30;99.90;;;;;;4977069;28;20477;-65
2022/07/21 06:43:13;;;;;;;12.70;11.70;;;24.30;99.90;;;;;;4977228;28;20490;-65
2022/07/21 06:45:41;;;;;;;14.27;12.60;;;24.50;99.90;;;;;;4977103;28;20459;-65
2022/07/21 06:48:09;;;;;;;13.77;12.77;;;24.50;99.90;;;;;;4976957;28;20513;-65
2022/07/21 06:50:36;;;;;;;13.70;12.70;;;24.60;99.90;;;;;;4977266;28;20454;-65
2022/07/21 06:53:04;;;;;;;12.20;11.20;;;24.90;99.90;;;;;;4977493;28;20482;-65
2022/07/21 06:55:31;;;;;;;13.10;12.20;;;25.30;99.90;;;;;;4977245;28;20787;-66
2022/07/21 06:57:58;;;;;;;12.40;11.37;;;25.50;99.90;;;;;;4976961;28;20493;-65
2022/07/21 07:00:25;;;;;;;13.43;12.30;;;25.70;99.90;;;;;;4976485;28;20464;-64
2022/07/21 07:02:53;;;;;;;12.00;11.00;;;26.10;99.90;;;;;;4976613;28;20482;-65
2022/07/21 07:05:20;;;;;;;11.93;11.10;;;26.60;99.90;;;;;;4976747;28;20466;-64
2022/07/21 07:07:48;;;;;;;10.77;9.97;;;27.00;99.90;;;;;;4976857;28;20455;-67
2022/07/21 07:10:15;;;;;;;11.73;10.93;;;27.30;99.90;;;;;;4976618;28;20458;-65
2022/07/21 07:12:42;;;;;;;12.20;11.10;;;27.70;99.90;;;;;;4976245;28;20982;-66
2022/07/21 07:15:09;;;;;;;13.23;12.10;;;28.20;99.90;;;;;;4977897;28;20458;-65
2022/07/21 07:17:36;;;;;;;10.50;9.50;;;28.70;99.90;;;;;;4976877;28;20501;-66
2022/07/21 07:20:07;;;;;;;11.20;10.30;;;29.10;99.90;;;;;;4976739;28;20487;-67
2022/07/21 07:22:34;;;;;;;10.20;9.20;;;29.60;99.90;;;;;;4975834;28;20985;-67
2022/07/21 07:25:01;;;;;;;11.47;9.17;;;30.00;99.90;;;;;;4976865;28;20636;-68
2022/07/21 07:27:27;;;;;;;10.47;9.57;;;30.40;99.90;;;;;;4977035;28;20450;-71
2022/07/21 07:29:54;;;;;;;11.00;10.27;;;30.70;99.90;;;;;;4977066;28;20950;-71
2022/07/21 07:32:21;;;;;;;10.27;9.57;;;31.20;99.90;;;;;;4975897;28;20486;-70
2022/07/21 07:34:47;;;;;;;8.27;7.77;;;31.30;99.90;;;;;;4975776;28;20950;-70
2022/07/21 07:37:16;;;;;;;9.20;8.50;;;31.40;99.90;;;;;;4975989;28;20746;-72
2022/07/21 07:39:42;;;;;;;9.67;8.37;;;31.60;99.90;;;;;;4976695;28;20938;-72
2022/07/21 07:42:09;;;;;;;10.23;9.53;;;31.90;99.90;;;;;;4975803;28;20479;-68
2022/07/21 07:44:36;;;;;;;8.53;7.93;;;32.10;97.10;;;;;;4975828;28;20570;-69
2022/07/21 07:47:03;;;;;;;7.83;7.30;;;31.80;97.40;;;;;;4975619;28;20942;-69
2022/07/21 07:49:30;;;;;;;9.40;8.70;;;31.50;96.30;;;;;;4975676;28;20873;-71
2022/07/21 07:51:57;;;;;;;9.47;8.87;;;31.40;96.80;;;;;;4975864;28;20545;-70
2022/07/21 07:54:25;;;;;;;9.40;8.13;;;30.80;97.20;;;;;;4975833;28;20767;-69
2022/07/21 07:56:52;;;;;;;8.40;7.90;;;31.40;98.00;;;;;;4975865;28;20507;-70
2022/07/21 07:59:19;;;;;;;8.23;7.67;;;31.70;95.80;;;;;;4975728;28;20455;-70
2022/07/21 08:01:45;;;;;;;8.43;7.73;;;32.00;94.40;;;;;;4975623;28;20482;-66
2022/07/21 08:04:14;;;;;;;8.13;7.63;;;32.30;94.10;;;;;;4975519;28;20474;-66
2022/07/21 08:06:40;;;;;;;8.10;7.50;;;32.40;93.50;;;;;;4975756;28;20473;-66
2022/07/21 08:09:07;;;;;;;7.90;7.30;;;32.40;93.70;;;;;;4975698;28;20454;-66
2022/07/21 08:11:36;;;;;;;7.57;7.03;;;32.30;92.10;;;;;;4975415;28;20454;-66
2022/07/21 08:14:03;;;;;;;7.03;6.43;;;32.00;92.80;;;;;;4975479;28;20479;-71
2022/07/21 08:16:29;;;;;;;6.70;6.30;;;32.00;90.40;;;;;;4975470;28;20454;-72
2022/07/21 08:18:56;;;;;;;7.40;6.70;;;32.40;91.50;;;;;;4975250;28;20946;-71
2022/07/21 08:21:29;;;;;;;7.50;7.00;;;33.00;91.10;;;;;;4975809;28;20488;-71
2022/07/21 08:23:55;;;;;;;6.97;6.47;;;33.20;90.00;;;;;;4975655;28;20498;-73
2022/07/21 08:26:22;;;;;;;7.43;7.03;;;33.70;85.80;;;;;;4975782;28;20816;-74
2022/07/21 08:28:50;;;;;;;7.40;6.60;;;33.80;83.40;;;;;;4975822;28;20439;-74
2022/07/21 08:31:17;;;;;;;7.10;6.60;;;34.20;80.30;;;;;;4975610;28;20457;-74
2022/07/21 08:33:43;;;;;;;6.80;6.40;;;34.50;80.30;;;;;;4975235;28;20496;-74
2022/07/21 08:36:11;;;;;;;6.90;6.20;;;34.70;77.80;;;;;;4988140;28;20434;-73
2022/07/21 08:38:37;;;;;;;7.30;6.80;;;34.70;75.80;;;;;;4996739;28;20442;-73
2022/07/21 08:41:07;;;;;;;7.93;7.13;;;34.50;72.90;;;;;;4977181;28;20446;-73
2022/07/21 08:43:34;;;;;;;7.70;6.70;;;34.40;75.90;;;;;;4975866;28;20537;-73
2022/07/21 08:46:02;;;;;;;7.90;6.07;;;34.40;73.30;;;;;;4976129;28;20483;-73
2022/07/21 08:48:29;;;;;;;6.10;5.70;;;34.00;73.80;;;;;;4975451;28;20462;-72
2022/07/21 08:50:57;;;;;;;6.20;5.80;;;33.30;74.80;;;;;;4975082;28;20470;-74
2022/07/21 08:53:24;;;;;;;6.97;6.37;;;32.60;73.30;;;;;;4974935;28;20470;-74
2022/07/21 08:55:51;;;;;;;7.07;6.53;;;31.60;77.40;;;;;;4975032;28;20795;-74
2022/07/21 08:58:18;;;;;;;6.70;6.10;;;31.30;77.90;;;;;;4974879;28;20459;-74
2022/07/21 09:00:48;;;;;;;6.57;6.00;;;31.30;83.50;;;;;;4975114;28;20461;-74
2022/07/21 09:03:18;;;;;;;6.97;6.57;;;31.80;82.30;;;;;;4975919;28;21003;-75
2022/07/21 09:06:01;;;;;;;5.90;5.50;;;32.00;77.20;;;;;;4975561;28;20526;-74
2022/07/21 09:08:30;;;;;;;6.50;6.10;;;32.60;76.30;;;;;;4975924;28;20438;-75
2022/07/21 09:11:09;;;;;;;6.10;5.70;;;33.10;73.80;;;;;;4975684;28;20529;-73
2022/07/21 09:13:36;;;;;;;6.50;6.00;;;33.00;73.30;;;;;;4976543;28;20962;-74
2022/07/21 09:16:02;;;;;;;6.30;5.90;;;32.90;73.50;;;;;;4975968;28;20489;-72
2022/07/21 09:18:31;;;;;;;6.80;6.30;;;32.60;73.10;;;;;;4976426;28;20455;-72
2022/07/21 09:20:58;;;;;;;6.50;6.07;;;32.80;76.00;;;;;;4976513;28;20824;-71
2022/07/21 09:23:26;;;;;;;6.73;6.00;;;33.30;73.00;;;;;;4975362;28;20573;-72
2022/07/21 09:25:54;;;;;;;6.63;6.13;;;33.60;72.50;;;;;;4974871;28;20976;-74
2022/07/21 09:28:23;;;;;;;5.67;5.27;;;33.90;68.80;;;;;;4976155;28;20451;-75
2022/07/21 09:30:53;;;;;;;5.13;4.83;;;34.20;67.40;;;;;;4975801;28;20454;-74
2022/07/21 09:33:25;;;;;;;5.03;4.70;;;34.40;66.20;;;;;;4974735;28;20490;-73
2022/07/21 09:36:05;;;;;;;5.73;5.40;;;34.30;67.10;;;;;;4974920;28;20446;-72
2022/07/21 09:38:35;;;;;;;6.30;5.83;;;34.10;67.60;;;;;;4974816;28;20450;-72
2022/07/21 09:41:06;;;;;;;8.03;4.70;;;33.80;71.60;;;;;;4974807;28;20443;-74
2022/07/21 09:43:41;;;;;;;5.20;4.90;;;34.00;68.80;;;;;;4974584;28;20481;-73
2022/07/21 09:46:10;;;;;;;5.43;5.03;;;34.10;64.90;;;;;;4975994;28;20441;-72
2022/07/21 09:48:39;;;;;;;5.40;5.10;;;34.20;66.90;;;;;;4978178;28;20454;-72
2022/07/21 09:51:26;;;;;;;6.00;5.57;;;34.70;68.60;;;;;;4978244;28;20457;-73
2022/07/21 09:53:57;;;;;;;5.53;5.23;;;35.30;65.50;;;;;;4977994;28;20889;-73
2022/07/21 09:56:24;;;;;;;6.00;5.50;;;35.70;64.40;;;;;;4978274;28;20438;-74
2022/07/21 09:58:54;;;;;;;6.07;5.77;;;36.30;62.60;;;;;;4978294;28;20480;-73
2022/07/21 10:01:21;;;;;;;6.17;5.63;;;36.10;62.30;;;;;;4978099;28;20465;-73
2022/07/21 10:03:49;;;;;;;7.03;6.43;;;35.20;64.40;;;;;;4977649;28;20482;-73
2022/07/21 10:06:18;;;;;;;7.27;6.80;;;34.60;65.30;;;;;;4978039;28;20461;-72
2022/07/21 10:08:46;;;;;;;6.97;6.47;;;33.40;69.50;;;;;;4977857;28;20454;-72
2022/07/21 10:11:13;;;;;;;6.57;6.03;;;32.80;70.60;;;;;;4978211;28;20466;-72
2022/07/21 10:13:40;;;;;;;7.13;6.53;;;32.10;71.50;;;;;;4977829;28;20474;-72
2022/07/21 10:16:10;;;;;;;7.90;6.60;;;31.40;73.20;;;;;;4978491;28;20513;-72
2022/07/21 10:18:44;;;;;;;7.17;6.33;;;30.50;75.20;;;;;;4977723;28;20459;-72
2022/07/21 10:21:23;;;;;;;7.23;6.63;;;29.80;77.50;;;;;;4977803;28;20446;-77
2022/07/21 10:23:54;;;;;;;7.73;7.23;;;29.10;80.10;;;;;;4978143;28;20509;-75
2022/07/21 10:26:22;;;;;;;7.67;6.97;;;28.70;84.70;;;;;;4978057;28;20435;-76
2022/07/21 10:28:49;;;;;;;7.67;6.97;;;28.50;86.40;;;;;;4977914;28;20461;-76
2022/07/21 10:31:18;;;;;;;7.37;6.67;;;28.40;85.80;;;;;;4977926;28;20466;-76
2022/07/21 10:34:00;;;;;;;6.00;5.47;;;28.70;86.30;;;;;;4977640;28;20486;-76
2022/07/21 10:36:54;;;;;;;5.33;5.03;;;29.50;83.30;;;;;;4978401;28;20458;-75
2022/07/21 10:39:25;;;;;;;5.50;5.20;;;30.60;75.50;;;;;;4943118;28;20451;-74
2022/07/21 10:41:54;;;;;;;5.77;5.47;;;31.50;75.70;;;;;;4977743;28;20442;-73
2022/07/21 10:44:40;;;;;;;5.00;4.70;;;32.60;72.90;;;;;;4977795;28;20533;-73
2022/07/21 10:47:08;;;;;;;5.00;4.70;;;33.70;72.30;;;;;;4979407;28;20469;-73
2022/07/21 10:49:50;;;;;;;5.50;5.17;;;34.20;66.30;;;;;;4977354;28;20980;-73
2022/07/21 10:53:09;;;;;;;5.43;5.03;;;35.00;67.60;;;;;;4977543;28;20478;-72
2022/07/21 10:55:38;;;;;;;4.40;4.20;;;35.80;64.60;;;;;;4977305;28;20446;-72
2022/07/21 10:58:17;;;;;;;5.10;4.70;;;36.30;57.90;;;;;;4977325;28;20457;-72
2022/07/21 11:00:51;;;;;;;5.00;4.70;;;36.50;57.70;;;;;;4977224;28;20552;-71
2022/07/21 11:03:23;;;;;;;4.97;4.50;;;36.70;56.90;;;;;;4976968;28;20489;-71
2022/07/21 11:06:16;;;;;;;4.50;4.23;;;37.00;56.20;;;;;;4977129;28;20443;-72
2022/07/21 11:08:44;;;;;;;4.90;4.53;;;36.80;54.10;;;;;;4976994;28;20457;-72
2022/07/21 11:11:14;;;;;;;5.10;4.80;;;36.20;56.20;;;;;;4977034;28;20457;-71
2022/07/21 11:14:12;;;;;;;5.80;5.50;;;35.40;58.60;;;;;;4976834;28;20474;-71
2022/07/21 11:17:10;;;;;;;5.33;4.83;;;34.80;61.40;;;;;;4917315;29;20433;-71
2022/07/21 11:19:40;;;;;;;5.20;4.80;;;34.50;62.80;;;;;;4976408;28;20458;-70
2022/07/21 11:22:11;;;;;;;5.20;4.90;;;34.60;63.60;;;;;;4976470;28;20461;-71
2022/07/21 11:24:39;;;;;;;5.63;5.20;;;34.80;62.30;;;;;;4976466;28;20469;-70
2022/07/21 11:27:09;;;;;;;5.40;4.80;;;34.90;59.60;;;;;;4976249;28;20494;-71
2022/07/21 11:29:39;;;;;;;5.03;4.73;;;35.00;59.30;;;;;;4977088;28;20458;-71
2022/07/21 11:32:06;;;;;;;5.47;4.97;;;35.10;58.60;;;;;;4976962;28;20453;-71
2022/07/21 11:34:49;;;;;;;6.33;5.10;;;35.10;60.90;;;;;;4977149;28;20438;-70
2022/07/21 11:37:17;;;;;;;5.33;4.93;;;34.90;59.90;;;;;;4975426;28;20464;-71
2022/07/21 11:39:44;;;;;;;5.07;4.77;;;35.10;57.30;;;;;;4976431;28;20957;-70
2022/07/21 11:42:15;;;;;;;5.23;4.93;;;34.90;56.80;;;;;;4976115;28;20454;-70
2022/07/21 11:44:43;;;;;;;5.30;4.90;;;34.80;56.90;;;;;;4975970;28;20884;-70
2022/07/21 11:47:12;;;;;;;5.30;4.90;;;34.50;57.40;;;;;;4976733;28;20466;-72
2022/07/21 11:49:40;;;;;;;5.53;5.13;;;34.40;59.60;;;;;;4975822;28;20454;-71
2022/07/21 11:52:09;;;;;;;5.30;5.00;;;34.40;58.60;;;;;;4981836;28;20458;-71
2022/07/21 11:54:39;;;;;;;6.07;5.60;;;33.70;58.70;;;;;;4996861;28;20443;-70
2022/07/21 11:57:08;;;;;;;6.00;5.60;;;33.30;61.70;;;;;;4987020;28;20443;-70
2022/07/21 11:59:40;;;;;;;5.77;5.37;;;33.10;60.60;;;;;;4976849;28;20854;-69
2022/07/21 12:02:10;;;;;;;6.30;5.90;;;32.70;61.80;;;;;;4976377;28;20439;-71
2022/07/21 12:04:43;;;;;;;5.20;4.90;;;32.40;61.40;;;;;;4975958;28;20469;-72
2022/07/21 12:07:25;;;;;;;6.33;5.93;;;31.90;62.20;;;;;;4975858;28;20454;-72
2022/07/21 12:09:54;;;;;;;8.27;6.23;;;31.40;63.20;;;;;;4975200;28;20460;-72
2022/07/21 12:12:31;;;;;;;6.20;5.83;;;31.20;66.30;;;;;;4975949;28;20467;-71
2022/07/21 12:15:11;;;;;;;7.20;6.70;;;30.70;66.90;;;;;;4975947;28;20458;-71
2022/07/21 12:17:39;;;;;;;7.33;6.80;;;30.30;66.40;;;;;;4976008;28;20449;-71
2022/07/21 12:20:08;;;;;;;6.27;5.87;;;30.10;70.40;;;;;;4976468;28;20973;-70
2022/07/21 12:22:36;;;;;;;7.40;6.77;;;30.10;69.10;;;;;;4976306;28;20470;-71
2022/07/21 12:25:04;;;;;;;6.93;6.47;;;30.10;70.50;;;;;;4975462;28;20494;-71
2022/07/21 12:27:32;;;;;;;6.63;6.17;;;30.30;72.10;;;;;;4975627;28;20454;-71
2022/07/21 12:30:00;;;;;;;7.67;7.07;;;30.70;71.00;;;;;;4975680;28;20489;-71
2022/07/21 12:32:42;;;;;;;7.00;6.40;;;30.90;68.70;;;;;;4975406;28;20494;-71
2022/07/21 12:35:18;;;;;;;8.07;7.47;;;31.00;68.30;;;;;;4975561;28;20477;-71
2022/07/21 12:38:00;;;;;;;7.63;7.00;;;30.90;69.70;;;;;;4975136;28;20453;-71
2022/07/21 12:40:29;;;;;;;8.10;7.40;;;31.00;69.60;;;;;;4975225;28;20466;-70
2022/07/21 12:43:12;;;;;;;6.53;6.13;;;31.30;70.70;;;;;;4975381;28;20478;-70
2022/07/21 12:45:52;;;;;;;7.03;6.40;;;31.50;69.10;;;;;;4975266;28;20439;-71
2022/07/21 12:48:21;;;;;;;6.67;6.17;;;31.50;67.20;;;;;;4975898;28;20446;-71
2022/07/21 12:51:03;;;;;;;8.00;6.60;;;31.30;67.50;;;;;;4974695;28;20823;-70
2022/07/21 12:53:31;;;;;;;7.57;6.90;;;31.10;67.00;;;;;;4975025;28;20471;-70
2022/07/21 12:55:58;;;;;;;7.60;7.00;;;30.90;66.80;;;;;;4975089;28;20462;-70
2022/07/21 12:58:25;;;;;;;7.27;6.77;;;30.90;69.80;;;;;;4974961;28;20462;-70
2022/07/21 13:00:53;;;;;;;6.77;6.07;;;30.80;68.70;;;;;;4974862;28;20451;-71
2022/07/21 13:03:19;;;;;;;7.60;6.80;;;30.80;69.20;;;;;;4974429;28;20478;-70
2022/07/21 13:05:46;;;;;;;6.50;6.00;;;30.90;68.20;;;;;;4975004;28;20474;-70
2022/07/21 13:08:13;;;;;;;7.40;6.70;;;30.80;69.50;;;;;;4974882;28;20458;-70
2022/07/21 13:10:40;;;;;;;7.20;6.50;;;30.70;68.60;;;;;;4974413;28;20825;-71
2022/07/21 13:13:07;;;;;;;6.60;6.10;;;30.90;66.20;;;;;;4974451;28;20474;-71
2022/07/21 13:15:34;;;;;;;7.00;6.60;;;31.10;66.80;;;;;;4974778;28;20458;-71
2022/07/21 13:18:02;;;;;;;7.00;6.50;;;31.30;64.70;;;;;;4974720;28;20458;-71